createdAt,value
2022-10-09T00:03:31.296Z,26.70
2022-10-09T00:08:34.883Z,26.80
2022-10-09T00:13:37.681Z,27.70
2022-10-09T00:18:39.679Z,27.40
2022-10-09T00:23:41.681Z,26.70
2022-10-09T00:28:43.803Z,26.70
2022-10-09T00:33:45.974Z,27.00
2022-10-09T00:38:48.811Z,27.10
2022-10-09T00:43:52.667Z,27.60
2022-10-09T00:49:11.878Z,27.10
2022-10-09T00:54:16.382Z,27.20
2022-10-09T00:59:19.387Z,26.40
2022-10-09T01:04:21.397Z,27.40
2022-10-09T01:09:48.727Z,27.10
2022-10-09T01:14:53.488Z,27.70
2022-10-09T01:20:32.124Z,27.60
2022-10-09T01:25:44.206Z,27.50
2022-10-09T01:30:46.958Z,27.20
2022-10-09T01:35:49.960Z,27.00
2022-10-09T01:40:53.714Z,27.30
2022-10-09T01:46:20.900Z,27.70
2022-10-09T01:51:27.659Z,28.10
2022-10-09T01:56:32.627Z,28.60
2022-10-09T02:01:37.431Z,28.20
2022-10-09T02:06:41.521Z,28.70
2022-10-09T02:11:49.295Z,28.00
2022-10-09T02:17:01.216Z,28.70
2022-10-09T02:22:12.974Z,28.40
2022-10-09T02:27:16.159Z,28.70
2022-10-09T02:32:18.404Z,28.40
2022-10-09T02:37:20.472Z,28.60
2022-10-09T02:42:22.489Z,28.30
2022-10-09T02:47:24.509Z,28.80
2022-10-09T02:52:26.605Z,28.20
2022-10-09T02:57:28.779Z,28.20
2022-10-09T03:02:30.926Z,27.90
2022-10-09T03:07:33.157Z,27.90
2022-10-09T03:12:35.322Z,28.00
2022-10-09T03:17:37.390Z,27.90
2022-10-09T03:22:39.412Z,27.70
2022-10-09T03:27:41.478Z,28.00
2022-10-09T03:32:43.579Z,28.00
2022-10-09T03:37:45.607Z,27.80
2022-10-09T03:42:47.869Z,27.80
2022-10-09T03:47:50.219Z,27.90
2022-10-09T03:52:52.331Z,27.80
2022-10-09T03:57:54.496Z,27.60
2022-10-09T04:02:56.630Z,27.60
2022-10-09T04:07:58.645Z,27.30
2022-10-09T04:13:00.799Z,27.30
2022-10-09T04:18:03.370Z,27.70
2022-10-09T04:23:05.393Z,27.50
2022-10-09T04:28:07.448Z,27.40
2022-10-09T04:33:12.942Z,27.50
2022-10-09T04:38:15.337Z,27.60
2022-10-09T04:43:17.348Z,27.70
2022-10-09T04:48:19.523Z,27.70
2022-10-09T04:53:21.600Z,27.80
2022-10-09T04:58:24.016Z,27.80
2022-10-09T05:03:26.045Z,27.80
2022-10-09T05:08:28.097Z,27.70
2022-10-09T05:13:36.604Z,27.60
2022-10-09T05:18:50.559Z,27.40
2022-10-09T05:23:54.007Z,27.70
2022-10-09T05:28:56.116Z,27.70
2022-10-09T05:34:01.928Z,27.80
2022-10-09T05:39:04.236Z,28.10
2022-10-09T05:44:06.351Z,27.60
2022-10-09T05:49:12.060Z,28.50
2022-10-09T05:54:16.471Z,28.40
2022-10-09T05:59:19.806Z,27.90
2022-10-09T06:04:24.454Z,27.80
2022-10-09T06:09:26.749Z,28.10
2022-10-09T06:14:28.868Z,28.00
2022-10-09T06:19:30.903Z,28.00
2022-10-09T06:24:32.955Z,27.80
2022-10-09T06:29:35.019Z,28.00
2022-10-09T06:34:37.071Z,28.10
2022-10-09T06:39:39.133Z,28.20
2022-10-09T06:44:43.303Z,28.40
2022-10-09T06:49:45.378Z,28.60
2022-10-09T06:54:47.477Z,28.40
2022-10-09T06:59:50.043Z,29.20
2022-10-09T07:04:52.110Z,29.50
2022-10-09T07:09:54.439Z,29.60
2022-10-09T07:14:56.490Z,29.30
2022-10-09T07:19:58.572Z,30.70
2022-10-09T07:25:00.740Z,30.90
2022-10-09T07:30:02.996Z,31.10
2022-10-09T07:35:05.787Z,31.30
2022-10-09T07:40:07.945Z,31.20
2022-10-09T07:45:10.238Z,30.70
2022-10-09T07:50:12.212Z,30.50
2022-10-09T07:55:14.323Z,30.90
2022-10-09T08:00:16.674Z,30.90
2022-10-09T08:05:18.739Z,31.10
2022-10-09T08:10:21.151Z,31.00
2022-10-09T08:15:23.247Z,30.80
2022-10-09T08:20:25.341Z,30.90
2022-10-09T08:25:27.498Z,30.40
2022-10-09T08:30:29.924Z,30.40
2022-10-09T08:35:34.588Z,30.20
2022-10-09T08:40:58.312Z,29.80
2022-10-09T08:46:04.961Z,29.90
2022-10-09T08:51:13.259Z,29.80
2022-10-09T08:56:15.565Z,29.50
2022-10-09T09:01:42.083Z,29.40
2022-10-09T09:06:56.458Z,29.50
2022-10-09T09:12:12.380Z,29.30
2022-10-09T09:17:33.025Z,28.80
2022-10-09T09:22:41.224Z,28.70
2022-10-09T09:27:44.015Z,28.00
2022-10-09T09:32:55.597Z,27.30
2022-10-09T09:37:57.765Z,28.10
2022-10-09T09:43:04.792Z,26.90
2022-10-09T09:48:22.669Z,27.30
2022-10-09T09:53:32.337Z,26.80
2022-10-09T09:58:44.953Z,26.00
2022-10-09T10:03:52.413Z,26.70
2022-10-09T10:09:21.519Z,26.70
2022-10-09T10:14:24.239Z,26.30
2022-10-09T10:19:29.369Z,26.10
2022-10-09T10:24:46.772Z,25.70
2022-10-09T10:29:52.330Z,25.00
2022-10-09T10:35:03.907Z,23.20
2022-10-09T10:40:35.088Z,23.60
2022-10-09T10:46:27.424Z,22.40
2022-10-09T10:51:51.058Z,22.00
2022-10-09T10:57:12.488Z,20.80
2022-10-09T11:02:40.902Z,20.00
2022-10-09T11:08:04.857Z,19.50
2022-10-09T11:13:34.917Z,19.20
2022-10-09T11:19:04.215Z,19.20
2022-10-09T11:24:38.496Z,17.90
2022-10-09T11:29:45.225Z,17.60
2022-10-09T11:35:14.587Z,16.40
2022-10-09T11:40:40.089Z,15.80
2022-10-09T11:46:06.133Z,15.80
2022-10-09T11:51:29.068Z,15.10
2022-10-09T11:56:32.203Z,14.10
2022-10-09T12:01:42.892Z,13.30
2022-10-09T12:06:58.462Z,13.40
2022-10-09T12:12:07.394Z,12.20
2022-10-09T12:17:38.381Z,12.50
2022-10-09T12:22:56.433Z,12.00
2022-10-09T12:28:42.272Z,11.30
2022-10-09T12:33:53.092Z,10.90
2022-10-09T12:38:55.559Z,10.20
2022-10-09T12:43:58.320Z,9.50
2022-10-09T12:49:03.653Z,9.90
2022-10-09T12:54:09.935Z,9.20
2022-10-09T12:59:13.306Z,7.90
2022-10-09T13:04:33.559Z,8.10
2022-10-09T13:09:39.250Z,6.90
2022-10-09T13:14:51.975Z,6.90
2022-10-09T13:19:56.088Z,6.20
2022-10-09T13:24:59.261Z,6.10
2022-10-09T13:30:02.130Z,5.10
2022-10-09T13:35:04.541Z,4.30
2022-10-09T13:40:11.726Z,4.10
2022-10-09T13:45:13.821Z,3.00
2022-10-09T13:50:16.540Z,2.90
2022-10-09T13:55:19.133Z,2.50
2022-10-09T14:00:21.171Z,1.40
2022-10-09T14:05:23.731Z,1.00
2022-10-09T14:10:26.738Z,1.00
2022-10-09T14:15:28.807Z,1.00
2022-10-09T14:20:30.924Z,1.00
2022-10-09T14:25:34.733Z,1.00
2022-10-09T14:30:40.773Z,1.00
2022-10-09T14:35:42.873Z,1.00
2022-10-09T14:40:45.583Z,1.00
2022-10-09T14:45:47.628Z,1.00
2022-10-09T14:50:49.695Z,1.00
2022-10-09T14:55:51.815Z,1.00
2022-10-09T15:00:53.838Z,1.00
2022-10-09T15:06:05.399Z,1.00
2022-10-09T15:11:08.503Z,1.00
2022-10-09T15:16:15.507Z,1.00
2022-10-09T15:21:29.372Z,1.00
2022-10-09T15:26:33.388Z,1.00
2022-10-09T15:31:41.407Z,1.00
2022-10-09T15:36:45.661Z,1.00
2022-10-09T15:41:47.861Z,1.70
2022-10-09T15:46:50.058Z,2.50
2022-10-09T15:51:52.214Z,3.50
2022-10-09T15:56:54.578Z,4.20
2022-10-09T16:01:56.679Z,3.90
2022-10-09T16:06:58.783Z,6.20
2022-10-09T16:12:01.434Z,7.10
2022-10-09T16:17:05.524Z,7.90
2022-10-09T16:22:09.887Z,8.40
2022-10-09T16:27:12.004Z,9.20
2022-10-09T16:32:14.205Z,9.00
2022-10-09T16:37:16.382Z,9.50
2022-10-09T16:42:18.607Z,10.00
2022-10-09T16:47:20.686Z,10.30
2022-10-09T16:52:22.835Z,10.50
2022-10-09T16:57:25.037Z,10.80
2022-10-09T17:02:27.233Z,11.10
2022-10-09T17:07:30.247Z,11.10
2022-10-09T17:12:32.408Z,11.50
2022-10-09T17:17:34.571Z,11.80
2022-10-09T17:22:36.648Z,12.00
2022-10-09T17:27:38.703Z,12.70
2022-10-09T17:32:40.752Z,13.10
2022-10-09T17:37:42.852Z,13.20
2022-10-09T17:42:44.933Z,13.80
2022-10-09T17:47:47.164Z,14.30
2022-10-09T17:52:49.447Z,15.00
2022-10-09T17:57:53.469Z,15.20
2022-10-09T18:02:55.498Z,15.60
2022-10-09T18:07:57.535Z,15.90
2022-10-09T18:12:59.591Z,16.10
2022-10-09T18:18:01.899Z,16.50
2022-10-09T18:23:05.051Z,16.80
2022-10-09T18:28:07.439Z,17.20
2022-10-09T18:33:09.667Z,17.40
2022-10-09T18:38:11.741Z,17.70
2022-10-09T18:43:13.778Z,17.60
2022-10-09T18:48:17.048Z,17.80
2022-10-09T18:53:19.182Z,18.50
2022-10-09T18:58:22.690Z,18.50
2022-10-09T19:03:24.728Z,18.70
2022-10-09T19:08:27.467Z,19.20
2022-10-09T19:13:29.479Z,19.00
2022-10-09T19:18:32.040Z,18.80
2022-10-09T19:23:34.096Z,19.20
2022-10-09T19:33:43.146Z,18.90
2022-10-09T19:38:45.925Z,19.30
2022-10-09T19:43:47.926Z,20.20
2022-10-09T19:48:50.584Z,20.10
2022-10-09T19:53:53.394Z,20.80
2022-10-09T19:58:55.780Z,20.60
2022-10-09T20:04:00.578Z,20.00
2022-10-09T20:09:03.313Z,20.90
2022-10-09T20:14:05.701Z,21.10
2022-10-09T20:19:08.042Z,20.30
2022-10-09T20:24:10.221Z,21.00
2022-10-09T20:29:12.321Z,21.40
2022-10-09T20:34:16.718Z,21.60
2022-10-09T20:39:21.161Z,22.00
2022-10-09T20:44:23.486Z,21.70
2022-10-09T20:49:25.624Z,21.80
2022-10-09T20:54:27.939Z,21.60
2022-10-09T20:59:30.327Z,22.20
2022-10-09T21:04:32.589Z,22.30
2022-10-09T21:09:34.590Z,21.60
2022-10-09T21:14:36.793Z,22.00
2022-10-09T21:19:38.816Z,22.70
2022-10-09T21:24:40.847Z,22.60
2022-10-09T21:29:42.897Z,22.60
2022-10-09T21:34:45.648Z,22.90
2022-10-09T21:39:47.622Z,22.70
2022-10-09T21:44:49.595Z,22.90
2022-10-09T21:49:51.837Z,22.90
2022-10-09T21:54:53.952Z,23.10
2022-10-09T21:59:56.054Z,23.00
2022-10-09T22:04:58.083Z,23.40
2022-10-09T22:10:00.459Z,23.40
2022-10-09T22:15:02.522Z,23.60
2022-10-09T22:20:05.016Z,23.00
2022-10-09T22:25:07.698Z,23.60
2022-10-09T22:30:10.684Z,24.10
2022-10-09T22:35:12.723Z,24.10
2022-10-09T22:40:14.864Z,24.00
2022-10-09T22:45:16.879Z,24.10
2022-10-09T22:50:18.901Z,24.00
2022-10-09T22:55:20.941Z,24.30
2022-10-09T23:00:22.955Z,24.10
2022-10-09T23:05:25.001Z,24.30
2022-10-09T23:10:27.120Z,24.20
2022-10-09T23:15:29.123Z,24.10
2022-10-09T23:20:35.792Z,24.30
2022-10-09T23:25:41.823Z,24.50
2022-10-09T23:30:43.834Z,24.40
2022-10-09T23:35:45.972Z,23.80
2022-10-09T23:40:59.034Z,24.50
2022-10-09T23:46:03.196Z,24.90
2022-10-09T23:51:06.536Z,24.80
2022-10-09T23:56:29.897Z,25.40
